createdAt,value
2022-10-17T00:02:18.731Z,5.28
2022-10-17T00:05:20.415Z,6.28
2022-10-17T00:08:22.203Z,5.93
2022-10-17T00:11:24.252Z,5.55
2022-10-17T00:14:26.004Z,5.40
2022-10-17T00:17:28.070Z,5.78
2022-10-17T00:20:32.857Z,6.15
2022-10-17T00:23:34.604Z,5.82
2022-10-17T00:26:36.280Z,5.55
2022-10-17T00:29:37.981Z,5.40
2022-10-17T00:32:40.226Z,5.85
2022-10-17T00:35:41.928Z,5.63
2022-10-17T00:38:46.738Z,5.05
2022-10-17T00:41:48.467Z,5.63
2022-10-17T00:44:50.136Z,5.95
2022-10-17T00:48:03.946Z,5.38
2022-10-17T00:51:06.520Z,5.03
2022-10-17T00:54:09.600Z,5.50
2022-10-17T00:57:12.003Z,5.80
2022-10-17T01:00:14.527Z,5.10
2022-10-17T01:03:16.646Z,5.53
2022-10-17T01:06:18.522Z,5.45
2022-10-17T01:09:20.550Z,5.25
2022-10-17T01:12:25.441Z,5.53
2022-10-17T01:15:39.606Z,4.95
2022-10-17T01:18:47.889Z,5.07
2022-10-17T01:22:05.436Z,5.03
2022-10-17T01:25:26.747Z,5.53
2022-10-17T01:28:56.923Z,5.10
2022-10-17T01:32:17.957Z,4.88
2022-10-17T01:35:49.093Z,4.53
2022-10-17T01:38:57.289Z,4.80
2022-10-17T01:42:13.557Z,5.28
2022-10-17T01:45:25.033Z,5.22
2022-10-17T01:48:34.861Z,5.45
2022-10-17T01:51:48.902Z,4.90
2022-10-17T01:55:06.061Z,5.03
2022-10-17T01:58:16.587Z,5.05
2022-10-17T02:01:20.931Z,5.60
2022-10-17T02:04:23.126Z,4.97
2022-10-17T02:07:25.142Z,5.25
2022-10-17T02:10:54.301Z,4.78
2022-10-17T02:14:09.846Z,4.78
2022-10-17T02:17:28.842Z,4.88
2022-10-17T02:24:04.806Z,4.88
2022-10-17T02:27:21.595Z,4.22
2022-10-17T02:30:26.264Z,4.40
2022-10-17T02:33:41.788Z,4.57
2022-10-17T02:36:51.761Z,4.20
2022-10-17T02:39:56.030Z,5.07
2022-10-17T02:42:59.651Z,4.20
2022-10-17T02:46:01.503Z,4.68
2022-10-17T02:49:07.080Z,4.75
2022-10-17T02:52:27.095Z,4.20
2022-10-17T02:55:36.048Z,4.75
2022-10-17T02:58:39.736Z,4.32
2022-10-17T03:01:41.965Z,4.30
2022-10-17T03:04:45.682Z,4.55
2022-10-17T03:07:47.747Z,4.43
2022-10-17T03:10:50.041Z,4.22
2022-10-17T03:13:51.874Z,4.05
2022-10-17T03:16:53.689Z,4.32
2022-10-17T03:19:55.480Z,4.70
2022-10-17T03:22:57.266Z,4.70
2022-10-17T03:25:59.000Z,4.28
2022-10-17T03:29:00.888Z,5.28
2022-10-17T03:32:04.401Z,4.53
2022-10-17T03:35:07.070Z,4.38
2022-10-17T03:38:09.555Z,4.00
2022-10-17T03:41:12.453Z,4.57
2022-10-17T03:44:14.683Z,4.07
2022-10-17T03:47:16.484Z,4.90
2022-10-17T03:50:18.690Z,4.03
2022-10-17T03:53:20.606Z,4.28
2022-10-17T03:56:25.003Z,4.45
2022-10-17T03:59:37.567Z,4.05
2022-10-17T04:02:48.286Z,4.13
2022-10-17T04:05:53.577Z,4.00
2022-10-17T04:08:55.389Z,4.18
2022-10-17T04:12:01.933Z,4.50
2022-10-17T04:15:06.416Z,4.53
2022-10-17T04:18:08.267Z,4.00
2022-10-17T04:21:11.707Z,4.22
2022-10-17T04:24:13.667Z,3.83
2022-10-17T04:27:23.523Z,4.63
2022-10-17T04:30:26.177Z,3.80
2022-10-17T04:33:28.187Z,3.63
2022-10-17T04:36:30.264Z,4.00
2022-10-17T04:39:32.352Z,3.92
2022-10-17T04:42:34.471Z,4.05
2022-10-17T04:45:36.481Z,3.40
2022-10-17T04:48:41.301Z,4.03
2022-10-17T04:51:43.395Z,3.60
2022-10-17T04:54:58.207Z,4.20
2022-10-17T04:58:00.082Z,4.40
2022-10-17T05:01:08.450Z,4.15
2022-10-17T05:04:11.321Z,4.30
2022-10-17T05:07:13.520Z,4.28
2022-10-17T05:10:23.778Z,4.38
2022-10-17T05:13:27.478Z,4.00
2022-10-17T05:16:29.997Z,4.28
2022-10-17T05:19:31.868Z,3.97
2022-10-17T05:22:38.232Z,3.78
2022-10-17T05:25:43.019Z,4.90
2022-10-17T05:28:44.805Z,4.15
2022-10-17T05:31:46.812Z,4.00
2022-10-17T05:34:48.545Z,4.18
2022-10-17T05:37:50.395Z,4.13
2022-10-17T05:40:58.461Z,4.68
2022-10-17T05:44:04.574Z,4.40
2022-10-17T05:47:16.423Z,3.90
2022-10-17T05:50:21.474Z,4.25
2022-10-17T05:53:38.791Z,4.30
2022-10-17T05:56:43.621Z,4.20
2022-10-17T05:59:45.333Z,4.32
2022-10-17T06:02:50.337Z,4.15
2022-10-17T06:05:54.516Z,4.28
2022-10-17T06:08:56.269Z,4.10
2022-10-17T06:12:03.666Z,4.18
2022-10-17T06:15:05.920Z,3.97
2022-10-17T06:18:09.441Z,4.57
2022-10-17T06:21:14.663Z,4.43
2022-10-17T06:24:20.323Z,3.72
2022-10-17T06:27:22.699Z,3.90
2022-10-17T06:30:24.584Z,4.15
2022-10-17T06:33:26.398Z,3.72
2022-10-17T06:36:28.424Z,4.00
2022-10-17T06:39:33.803Z,3.55
2022-10-17T06:42:41.471Z,4.18
2022-10-17T06:45:58.123Z,4.57
2022-10-17T06:49:11.092Z,3.85
2022-10-17T06:52:35.973Z,3.45
2022-10-17T06:56:01.199Z,4.63
2022-10-17T06:59:15.912Z,4.18
2022-10-17T07:02:25.285Z,4.60
2022-10-17T07:05:28.119Z,4.30
2022-10-17T07:08:30.056Z,4.05
2022-10-17T07:11:37.012Z,4.18
2022-10-17T07:14:38.753Z,4.07
2022-10-17T07:17:40.493Z,4.30
2022-10-17T07:20:42.349Z,3.42
2022-10-17T07:23:44.243Z,3.70
2022-10-17T07:26:46.153Z,3.60
2022-10-17T07:29:48.184Z,3.80
2022-10-17T07:33:07.327Z,4.05
2022-10-17T07:36:10.396Z,3.55
2022-10-17T07:39:12.565Z,3.72
2022-10-17T07:42:15.235Z,3.92
2022-10-17T07:45:17.217Z,3.80
2022-10-17T07:48:20.298Z,3.13
2022-10-17T07:51:22.227Z,3.63
2022-10-17T07:54:24.027Z,3.83
2022-10-17T07:57:26.122Z,3.25
2022-10-17T08:00:27.806Z,3.50
2022-10-17T08:03:29.605Z,3.45
2022-10-17T08:06:31.321Z,3.35
2022-10-17T08:09:33.011Z,3.30
2022-10-17T08:12:35.638Z,3.40
2022-10-17T08:15:38.799Z,3.72
2022-10-17T08:18:43.199Z,3.53
2022-10-17T08:21:46.788Z,3.40
2022-10-17T08:24:48.512Z,3.90
2022-10-17T08:27:50.320Z,3.45
2022-10-17T08:31:19.548Z,3.70
2022-10-17T08:34:21.382Z,3.40
2022-10-17T08:37:23.374Z,3.20
2022-10-17T08:40:27.948Z,3.97
2022-10-17T08:44:10.070Z,3.88
2022-10-17T08:47:16.441Z,4.53
2022-10-17T08:50:40.125Z,3.63
2022-10-17T08:54:16.861Z,3.70
2022-10-17T08:57:18.736Z,4.50
2022-10-17T09:00:22.566Z,4.30
2022-10-17T09:03:41.153Z,3.65
2022-10-17T09:06:54.882Z,4.35
2022-10-17T09:10:15.805Z,4.00
2022-10-17T09:17:22.927Z,4.03
2022-10-17T09:20:47.413Z,4.53
2022-10-17T09:24:03.917Z,4.05
2022-10-17T09:27:24.975Z,3.90
2022-10-17T09:30:46.466Z,3.83
2022-10-17T09:33:55.132Z,3.95
2022-10-17T09:36:59.737Z,3.90
2022-10-17T09:40:01.714Z,4.00
2022-10-17T09:43:06.781Z,3.72
2022-10-17T09:46:34.935Z,4.30
2022-10-17T09:49:45.346Z,4.00
2022-10-17T09:52:49.325Z,3.95
2022-10-17T09:56:01.477Z,4.07
2022-10-17T09:59:03.616Z,3.83
2022-10-17T10:02:18.565Z,4.25
2022-10-17T10:05:21.517Z,3.80
2022-10-17T10:08:26.312Z,4.05
2022-10-17T10:11:48.735Z,4.25
2022-10-17T10:14:54.626Z,4.10
2022-10-17T10:17:57.079Z,3.80
2022-10-17T10:21:11.510Z,3.55
2022-10-17T10:24:14.114Z,4.03
2022-10-17T10:27:18.233Z,3.85
2022-10-17T10:30:25.858Z,3.83
2022-10-17T10:36:53.658Z,3.70
2022-10-17T10:39:58.305Z,3.95
2022-10-17T10:43:05.151Z,3.75
2022-10-17T10:46:20.741Z,3.75
2022-10-17T10:49:31.082Z,3.85
2022-10-17T10:52:45.822Z,3.13
2022-10-17T10:55:58.861Z,3.58
2022-10-17T10:59:19.233Z,3.47
2022-10-17T11:02:44.055Z,3.65
2022-10-17T11:05:54.897Z,3.53
2022-10-17T11:09:27.892Z,3.67
2022-10-17T11:12:39.271Z,3.67
2022-10-17T11:15:48.164Z,3.20
2022-10-17T11:19:21.853Z,3.70
2022-10-17T11:22:42.081Z,3.63
2022-10-17T11:25:43.826Z,3.05
2022-10-17T11:28:45.592Z,3.67
2022-10-17T11:31:51.801Z,3.65
2022-10-17T11:35:04.140Z,3.90
2022-10-17T11:38:35.497Z,3.78
2022-10-17T11:41:42.901Z,3.35
2022-10-17T11:44:44.869Z,3.58
2022-10-17T11:47:57.538Z,3.30
2022-10-17T11:54:42.649Z,3.00
2022-10-17T11:58:04.419Z,3.55
2022-10-17T12:01:30.268Z,2.97
2022-10-17T12:04:52.965Z,3.30
2022-10-17T12:08:26.944Z,3.95
2022-10-17T12:11:45.594Z,2.95
2022-10-17T12:14:47.603Z,2.95
2022-10-17T12:18:03.370Z,3.28
2022-10-17T12:21:05.211Z,2.88
2022-10-17T12:24:28.860Z,3.38
2022-10-17T12:27:46.291Z,3.53
2022-10-17T12:31:06.122Z,3.80
2022-10-17T12:34:24.372Z,4.28
2022-10-17T12:37:44.989Z,4.40
2022-10-17T12:40:52.828Z,4.68
2022-10-17T12:43:55.002Z,4.93
2022-10-17T12:46:58.523Z,5.47
2022-10-17T12:50:00.250Z,5.05
2022-10-17T12:53:06.722Z,5.47
2022-10-17T12:56:08.703Z,5.63
2022-10-17T12:59:26.591Z,5.85
2022-10-17T13:02:29.930Z,5.10
2022-10-17T13:05:37.308Z,5.57
2022-10-17T13:08:46.362Z,5.78
2022-10-17T13:11:50.399Z,5.70
2022-10-17T13:14:55.821Z,4.90
2022-10-17T13:18:00.746Z,5.65
2022-10-17T13:21:15.986Z,5.05
2022-10-17T13:24:33.793Z,5.03
2022-10-17T13:27:36.517Z,5.45
2022-10-17T13:30:38.480Z,5.63
2022-10-17T13:33:42.200Z,4.93
2022-10-17T13:36:48.741Z,5.35
2022-10-17T13:40:03.023Z,5.30
2022-10-17T13:43:18.726Z,5.28
2022-10-17T13:46:40.042Z,5.55
2022-10-17T13:49:43.030Z,5.53
2022-10-17T13:52:44.753Z,4.63
2022-10-17T13:56:09.492Z,5.13
2022-10-17T13:59:25.212Z,4.50
2022-10-17T14:02:29.761Z,4.93
2022-10-17T14:05:33.500Z,5.20
2022-10-17T14:08:37.465Z,5.10
2022-10-17T14:11:44.434Z,4.90
2022-10-17T14:15:10.541Z,5.28
2022-10-17T14:18:24.563Z,4.68
2022-10-17T14:21:40.909Z,4.70
2022-10-17T14:24:45.927Z,4.55
2022-10-17T14:27:58.019Z,4.40
2022-10-17T14:31:37.967Z,4.60
2022-10-17T14:34:40.688Z,4.57
2022-10-17T14:37:48.706Z,4.85
2022-10-17T14:40:52.836Z,4.88
2022-10-17T14:44:00.937Z,4.43
2022-10-17T14:47:18.645Z,4.28
2022-10-17T14:50:29.269Z,4.43
2022-10-17T14:53:31.167Z,3.95
2022-10-17T14:56:42.054Z,4.00
2022-10-17T14:59:53.818Z,3.88
2022-10-17T15:02:56.565Z,4.32
2022-10-17T15:05:59.418Z,3.63
2022-10-17T15:09:01.213Z,4.00
2022-10-17T15:12:06.892Z,4.50
2022-10-17T15:15:08.918Z,4.03
2022-10-17T15:18:12.015Z,4.22
2022-10-17T15:21:26.239Z,4.00
2022-10-17T15:24:37.011Z,4.07
2022-10-17T15:27:38.722Z,4.10
2022-10-17T15:30:40.409Z,3.83
2022-10-17T15:33:43.027Z,4.20
2022-10-17T15:36:50.494Z,3.72
2022-10-17T15:39:55.738Z,4.15
2022-10-17T15:42:57.875Z,3.83
2022-10-17T15:46:00.592Z,3.40
2022-10-17T15:49:07.450Z,4.20
2022-10-17T15:52:09.206Z,3.95
2022-10-17T15:55:11.135Z,4.03
2022-10-17T15:58:16.252Z,4.10
2022-10-17T16:01:24.000Z,3.40
2022-10-17T16:04:27.394Z,3.45
2022-10-17T16:07:29.442Z,3.50
2022-10-17T16:10:31.810Z,3.80
2022-10-17T16:13:33.774Z,3.78
2022-10-17T16:16:35.599Z,3.55
2022-10-17T16:19:37.336Z,3.65
2022-10-17T16:22:41.965Z,3.45
2022-10-17T16:25:43.711Z,3.47
2022-10-17T16:28:46.530Z,3.78
2022-10-17T16:31:48.497Z,3.80
2022-10-17T16:34:50.300Z,3.65
2022-10-17T16:37:52.226Z,3.78
2022-10-17T16:40:53.952Z,3.72
2022-10-17T16:44:01.316Z,3.80
2022-10-17T16:47:03.079Z,3.58
2022-10-17T16:50:05.032Z,3.65
2022-10-17T16:53:06.958Z,3.17
2022-10-17T16:56:14.481Z,3.60
2022-10-17T16:59:16.190Z,3.67
2022-10-17T17:02:21.174Z,3.60
2022-10-17T17:05:23.318Z,3.90
2022-10-17T17:08:25.136Z,3.10
2022-10-17T17:11:28.240Z,3.58
2022-10-17T17:14:29.970Z,3.45
2022-10-17T17:17:48.729Z,3.40
2022-10-17T17:20:51.186Z,3.28
2022-10-17T17:23:53.624Z,3.53
2022-10-17T17:26:56.686Z,3.13
2022-10-17T17:29:58.451Z,2.92
2022-10-17T17:33:00.992Z,3.15
2022-10-17T17:36:02.695Z,3.53
2022-10-17T17:39:07.816Z,2.90
2022-10-17T17:42:09.560Z,3.45
2022-10-17T17:45:11.605Z,3.20
2022-10-17T17:48:13.398Z,2.60
2022-10-17T17:51:17.515Z,3.30
2022-10-17T17:54:19.303Z,3.50
2022-10-17T17:57:21.341Z,3.47
2022-10-17T18:00:23.120Z,3.33
2022-10-17T18:03:25.518Z,2.95
2022-10-17T18:06:28.222Z,3.47
2022-10-17T18:09:29.938Z,3.28
2022-10-17T18:12:32.813Z,3.10
2022-10-17T18:15:34.731Z,3.08
2022-10-17T18:18:36.539Z,3.60
2022-10-17T18:21:38.462Z,3.22
2022-10-17T18:24:40.735Z,3.63
2022-10-17T18:27:42.556Z,2.70
2022-10-17T18:30:44.266Z,3.10
2022-10-17T18:33:46.299Z,2.97
2022-10-17T18:36:48.122Z,3.25
2022-10-17T18:39:51.609Z,3.13
2022-10-17T18:42:53.405Z,3.25
2022-10-17T18:46:00.975Z,2.80
2022-10-17T18:52:04.438Z,2.85
2022-10-17T18:55:06.954Z,2.63
2022-10-17T18:58:08.731Z,2.80
2022-10-17T19:01:15.322Z,3.20
2022-10-17T19:04:17.471Z,3.00
2022-10-17T19:07:20.106Z,3.13
2022-10-17T19:10:22.154Z,3.05
2022-10-17T19:13:23.892Z,3.15
2022-10-17T19:16:30.335Z,2.92
2022-10-17T19:19:32.423Z,3.03
2022-10-17T19:22:34.146Z,3.22
2022-10-17T19:25:35.880Z,3.17
2022-10-17T19:28:41.431Z,2.80
2022-10-17T19:31:43.658Z,2.90
2022-10-17T19:34:45.450Z,3.15
2022-10-17T19:37:47.219Z,2.72
2022-10-17T19:40:48.958Z,3.10
2022-10-17T19:43:50.939Z,2.95
2022-10-17T19:46:52.649Z,3.40
2022-10-17T19:49:54.444Z,3.00
2022-10-17T19:52:56.266Z,3.10
2022-10-17T19:55:58.539Z,2.92
2022-10-17T19:59:00.350Z,3.10
2022-10-17T20:02:02.459Z,2.95
2022-10-17T20:05:20.828Z,2.83
2022-10-17T20:11:30.977Z,2.73
2022-10-17T20:14:35.222Z,2.45
2022-10-17T20:17:39.267Z,3.08
2022-10-17T20:20:40.997Z,2.50
2022-10-17T20:23:43.432Z,3.10
2022-10-17T20:26:45.809Z,3.03
2022-10-17T20:29:47.693Z,2.92
2022-10-17T20:32:49.424Z,2.83
2022-10-17T20:35:51.347Z,2.50
2022-10-17T20:38:55.049Z,3.00
2022-10-17T20:41:56.786Z,3.10
2022-10-17T20:44:58.696Z,2.80
2022-10-17T20:48:00.445Z,2.30
2022-10-17T20:51:07.780Z,2.75
2022-10-17T20:54:10.006Z,2.83
2022-10-17T20:57:11.730Z,2.97
2022-10-17T21:00:13.867Z,2.42
2022-10-17T21:03:15.627Z,3.00
2022-10-17T21:06:18.305Z,2.63
2022-10-17T21:09:20.538Z,2.63
2022-10-17T21:12:31.411Z,2.75
2022-10-17T21:15:43.966Z,2.50
2022-10-17T21:18:46.020Z,2.45
2022-10-17T21:21:47.746Z,2.40
2022-10-17T21:24:49.450Z,2.55
2022-10-17T21:27:53.156Z,2.50
2022-10-17T21:30:54.874Z,2.75
2022-10-17T21:33:58.555Z,3.03
2022-10-17T21:37:00.769Z,2.72
2022-10-17T21:40:02.503Z,2.75
2022-10-17T21:43:04.182Z,2.63
2022-10-17T21:46:09.003Z,2.53
2022-10-17T21:49:13.030Z,2.55
2022-10-17T21:52:14.749Z,2.55
2022-10-17T21:55:16.449Z,2.70
2022-10-17T21:58:19.186Z,2.75
2022-10-17T22:01:23.833Z,2.63
2022-10-17T22:04:25.564Z,2.53
2022-10-17T22:07:27.284Z,3.00
2022-10-17T22:10:28.993Z,2.58
2022-10-17T22:13:30.808Z,2.30
2022-10-17T22:16:32.950Z,2.88
2022-10-17T22:19:34.711Z,2.45
2022-10-17T22:22:36.406Z,2.17
2022-10-17T22:25:38.119Z,2.38
2022-10-17T22:28:41.190Z,2.50
2022-10-17T22:31:43.450Z,2.40
2022-10-17T22:34:45.536Z,2.42
2022-10-17T22:37:48.149Z,2.40
2022-10-17T22:40:49.916Z,2.60
2022-10-17T22:43:51.612Z,2.40
2022-10-17T22:46:53.297Z,2.30
2022-10-17T22:49:55.058Z,2.60
2022-10-17T22:52:56.822Z,2.40
2022-10-17T22:56:10.039Z,2.55
2022-10-17T22:59:11.751Z,2.30
2022-10-17T23:02:13.638Z,2.53
2022-10-17T23:05:15.427Z,2.08
2022-10-17T23:08:18.057Z,2.20
2022-10-17T23:11:20.824Z,2.08
2022-10-17T23:14:22.637Z,2.20
2022-10-17T23:17:24.330Z,2.53
2022-10-17T23:20:26.368Z,2.30
2022-10-17T23:23:28.071Z,2.03
2022-10-17T23:26:29.786Z,2.67
2022-10-17T23:29:33.026Z,2.15
2022-10-17T23:32:34.795Z,2.10
2022-10-17T23:35:36.538Z,2.13
2022-10-17T23:38:39.792Z,1.95
2022-10-17T23:41:41.520Z,2.35
2022-10-17T23:44:43.216Z,2.63
2022-10-17T23:47:45.003Z,2.15
2022-10-17T23:50:46.697Z,2.28
2022-10-17T23:53:48.390Z,2.70
2022-10-17T23:56:50.142Z,2.08
2022-10-17T23:59:51.874Z,1.80
